createdAt,value
2022-09-13T00:03:01.669Z,1.70
2022-09-13T00:06:11.278Z,1.35
2022-09-13T00:09:13.166Z,1.80
2022-09-13T00:12:15.633Z,1.42
2022-09-13T00:15:17.332Z,1.73
2022-09-13T00:18:19.441Z,1.52
2022-09-13T00:21:23.359Z,1.60
2022-09-13T00:24:25.084Z,1.35
2022-09-13T00:27:26.824Z,1.45
2022-09-13T00:30:28.900Z,1.50
2022-09-13T00:33:31.126Z,2.13
2022-09-13T00:36:33.132Z,1.60
2022-09-13T00:39:35.740Z,1.75
2022-09-13T00:42:38.150Z,1.83
2022-09-13T00:45:40.467Z,2.05
2022-09-13T00:48:43.236Z,1.67
2022-09-13T00:51:49.472Z,1.98
2022-09-13T00:54:57.162Z,2.80
2022-09-13T00:58:04.834Z,2.08
2022-09-13T01:01:09.765Z,2.00
2022-09-13T01:04:12.813Z,2.28
2022-09-13T01:07:16.883Z,2.50
2022-09-13T01:10:18.679Z,1.98
2022-09-13T01:13:25.433Z,2.30
2022-09-13T01:16:27.625Z,1.95
2022-09-13T01:19:29.341Z,1.85
2022-09-13T01:22:33.967Z,2.22
2022-09-13T01:26:12.453Z,2.17
2022-09-13T01:29:45.469Z,1.90
2022-09-13T01:32:56.473Z,1.60
2022-09-13T01:36:40.146Z,1.83
2022-09-13T01:39:49.597Z,1.85
2022-09-13T01:42:54.330Z,1.48
2022-09-13T01:46:07.321Z,2.22
2022-09-13T01:49:19.555Z,2.13
2022-09-13T01:52:32.467Z,1.95
2022-09-13T01:55:42.279Z,1.77
2022-09-13T01:58:48.990Z,2.17
2022-09-13T02:02:05.380Z,1.98
2022-09-13T02:05:23.135Z,1.85
2022-09-13T02:08:47.481Z,2.40
2022-09-13T02:11:52.661Z,2.35
2022-09-13T02:15:07.118Z,2.05
2022-09-13T02:18:11.327Z,2.15
2022-09-13T02:21:20.684Z,2.58
2022-09-13T02:24:30.184Z,2.58
2022-09-13T02:27:33.807Z,2.33
2022-09-13T02:30:40.720Z,2.47
2022-09-13T02:33:45.551Z,2.30
2022-09-13T02:36:51.047Z,1.88
2022-09-13T02:39:59.561Z,2.40
2022-09-13T02:43:06.214Z,1.90
2022-09-13T02:46:46.262Z,1.95
2022-09-13T02:50:30.306Z,2.00
2022-09-13T02:53:50.981Z,1.88
2022-09-13T02:56:58.853Z,2.30
2022-09-13T03:00:00.660Z,2.30
2022-09-13T03:03:08.220Z,2.33
2022-09-13T03:06:10.078Z,3.58
2022-09-13T03:09:12.281Z,2.83
2022-09-13T03:12:38.582Z,2.50
2022-09-13T03:16:25.437Z,2.55
2022-09-13T03:19:39.696Z,2.40
2022-09-13T03:23:16.044Z,2.40
2022-09-13T03:26:32.749Z,2.25
2022-09-13T03:29:42.539Z,1.73
2022-09-13T03:33:03.629Z,2.40
2022-09-13T03:36:12.896Z,2.10
2022-09-13T03:39:17.612Z,1.60
2022-09-13T03:42:25.282Z,1.58
2022-09-13T03:45:30.285Z,2.88
2022-09-13T03:48:37.170Z,3.45
2022-09-13T03:51:39.313Z,3.45
2022-09-13T03:54:41.109Z,3.42
2022-09-13T03:57:42.987Z,4.15
2022-09-13T04:00:45.398Z,3.53
2022-09-13T04:03:47.425Z,3.20
2022-09-13T04:06:49.746Z,3.13
2022-09-13T04:09:52.018Z,2.88
2022-09-13T04:12:57.221Z,2.90
2022-09-13T04:16:03.320Z,3.42
2022-09-13T04:19:05.160Z,3.83
2022-09-13T04:22:07.222Z,3.65
2022-09-13T04:25:09.684Z,4.22
2022-09-13T04:28:12.271Z,4.30
2022-09-13T04:31:14.365Z,4.10
2022-09-13T04:34:18.735Z,2.88
2022-09-13T04:37:21.231Z,2.45
2022-09-13T04:40:23.912Z,3.70
2022-09-13T04:43:25.906Z,3.63
2022-09-13T04:46:30.946Z,3.38
2022-09-13T04:49:33.960Z,4.20
2022-09-13T04:52:36.255Z,3.58
2022-09-13T04:55:38.332Z,3.88
2022-09-13T04:58:40.573Z,3.90
2022-09-13T05:01:42.812Z,3.60
2022-09-13T05:04:44.668Z,3.60
2022-09-13T05:07:50.586Z,3.38
2022-09-13T05:10:53.053Z,3.45
2022-09-13T05:13:57.340Z,2.92
2022-09-13T05:16:59.196Z,2.67
2022-09-13T05:20:00.879Z,2.63
2022-09-13T05:23:02.635Z,3.60
2022-09-13T05:26:05.867Z,3.05
2022-09-13T05:29:07.905Z,2.95
2022-09-13T05:32:09.722Z,2.72
2022-09-13T05:35:11.702Z,2.97
2022-09-13T05:38:13.446Z,2.90
2022-09-13T05:41:15.237Z,2.90
2022-09-13T05:44:17.215Z,2.90
2022-09-13T05:47:19.116Z,3.50
2022-09-13T05:50:45.154Z,3.45
2022-09-13T05:53:45.306Z,3.05
2022-09-13T05:56:47.075Z,3.10
2022-09-13T05:59:49.182Z,3.67
2022-09-13T06:02:51.042Z,3.03
2022-09-13T06:05:57.368Z,2.90
2022-09-13T06:08:59.184Z,2.47
2022-09-13T06:12:01.381Z,2.65
2022-09-13T06:15:04.121Z,2.60
2022-09-13T06:18:06.353Z,2.65
2022-09-13T06:21:11.503Z,2.67
2022-09-13T06:24:15.037Z,2.30
2022-09-13T06:27:17.100Z,2.22
2022-09-13T06:30:19.751Z,2.78
2022-09-13T06:33:22.452Z,2.60
2022-09-13T06:36:25.736Z,2.47
2022-09-13T06:39:27.886Z,2.30
2022-09-13T06:42:30.819Z,2.90
2022-09-13T06:45:33.585Z,2.72
2022-09-13T06:48:38.248Z,2.05
2022-09-13T06:51:41.296Z,2.38
2022-09-13T06:54:45.293Z,2.47
2022-09-13T06:57:47.841Z,3.10
2022-09-13T07:00:54.176Z,2.85
2022-09-13T07:04:02.059Z,2.63
2022-09-13T07:07:04.953Z,2.45
2022-09-13T07:10:07.423Z,2.90
2022-09-13T07:13:10.416Z,2.47
2022-09-13T07:16:12.781Z,2.15
2022-09-13T07:19:18.280Z,2.78
2022-09-13T07:22:20.620Z,2.60
2022-09-13T07:25:23.969Z,2.20
2022-09-13T07:28:27.536Z,2.75
2022-09-13T07:31:37.659Z,2.50
2022-09-13T07:34:41.056Z,2.72
2022-09-13T07:37:45.436Z,2.20
2022-09-13T07:40:58.321Z,1.70
2022-09-13T07:44:02.541Z,2.17
2022-09-13T07:47:05.858Z,2.05
2022-09-13T07:50:07.993Z,2.25
2022-09-13T07:53:10.089Z,2.10
2022-09-13T07:56:14.194Z,1.98
2022-09-13T07:59:17.010Z,2.03
2022-09-13T08:02:18.879Z,2.45
2022-09-13T08:05:20.729Z,2.42
2022-09-13T08:08:22.751Z,2.42
2022-09-13T08:11:27.791Z,2.53
2022-09-13T08:14:29.745Z,2.53
2022-09-13T08:17:31.670Z,2.08
2022-09-13T08:20:37.569Z,1.98
2022-09-13T08:23:39.534Z,2.72
2022-09-13T08:26:41.632Z,2.00
2022-09-13T08:29:43.524Z,2.45
2022-09-13T08:32:45.372Z,1.63
2022-09-13T08:35:52.809Z,1.70
2022-09-13T08:39:00.325Z,1.35
2022-09-13T08:42:35.412Z,2.38
2022-09-13T08:45:37.254Z,1.67
2022-09-13T08:48:42.262Z,1.55
2022-09-13T08:51:53.259Z,1.30
2022-09-13T08:54:58.355Z,1.13
2022-09-13T08:58:10.045Z,1.27
2022-09-13T09:01:19.694Z,1.17
2022-09-13T09:04:27.953Z,1.38
2022-09-13T09:07:41.620Z,1.08
2022-09-13T09:10:48.060Z,0.70
2022-09-13T09:14:00.867Z,1.05
2022-09-13T09:17:07.265Z,0.70
2022-09-13T09:20:32.548Z,1.00
2022-09-13T09:23:34.352Z,1.10
2022-09-13T09:26:36.210Z,1.17
2022-09-13T09:29:40.292Z,1.00
2022-09-13T09:32:57.647Z,1.40
2022-09-13T09:36:09.014Z,1.05
2022-09-13T09:39:14.383Z,1.02
2022-09-13T09:42:19.703Z,1.00
2022-09-13T09:45:25.297Z,1.10
2022-09-13T09:48:30.894Z,0.90
2022-09-13T09:51:33.714Z,1.10
2022-09-13T09:54:37.330Z,1.00
2022-09-13T09:57:55.805Z,1.08
2022-09-13T10:00:59.086Z,1.00
2022-09-13T10:04:17.336Z,1.10
2022-09-13T10:07:22.982Z,1.10
2022-09-13T10:10:37.645Z,1.08
2022-09-13T10:13:39.448Z,1.20
2022-09-13T10:16:41.541Z,1.02
2022-09-13T10:20:02.107Z,1.10
2022-09-13T10:23:16.173Z,1.10
2022-09-13T10:26:20.173Z,0.95
2022-09-13T10:29:22.503Z,0.90
2022-09-13T10:32:25.018Z,0.85
2022-09-13T10:35:27.759Z,1.25
2022-09-13T10:38:36.034Z,1.10
2022-09-13T10:41:42.115Z,1.13
2022-09-13T10:44:46.071Z,1.08
2022-09-13T10:47:50.545Z,1.20
2022-09-13T10:51:27.953Z,1.20
2022-09-13T10:54:30.088Z,1.05
2022-09-13T10:57:34.792Z,0.88
2022-09-13T11:00:46.438Z,1.30
2022-09-13T11:04:13.775Z,1.38
2022-09-13T11:07:19.162Z,1.00
2022-09-13T11:10:21.307Z,0.98
2022-09-13T11:13:34.316Z,1.20
2022-09-13T11:16:39.836Z,0.82
2022-09-13T11:20:07.182Z,0.93
2022-09-13T11:23:15.346Z,1.20
2022-09-13T11:26:23.390Z,0.98
2022-09-13T11:29:57.432Z,1.20
2022-09-13T11:33:18.330Z,1.27
2022-09-13T11:36:51.343Z,1.15
2022-09-13T11:40:09.609Z,1.25
2022-09-13T11:43:44.035Z,1.00
2022-09-13T11:47:19.982Z,1.13
2022-09-13T11:50:50.082Z,1.10
2022-09-13T11:54:13.651Z,0.93
2022-09-13T11:57:19.921Z,0.82
2022-09-13T12:00:26.692Z,1.08
2022-09-13T12:03:35.226Z,1.23
2022-09-13T12:06:48.526Z,1.00
2022-09-13T12:10:04.681Z,1.23
2022-09-13T12:13:10.971Z,0.97
2022-09-13T12:16:18.960Z,0.77
2022-09-13T12:19:25.339Z,1.98
2022-09-13T12:22:30.968Z,0.98
2022-09-13T12:25:39.681Z,1.00
2022-09-13T12:28:46.104Z,1.20
2022-09-13T12:31:48.104Z,0.80
2022-09-13T12:34:58.879Z,1.13
2022-09-13T12:38:31.453Z,1.20
2022-09-13T12:41:55.653Z,0.90
2022-09-13T12:45:19.133Z,1.15
2022-09-13T12:48:28.966Z,1.00
2022-09-13T12:51:34.111Z,0.80
2022-09-13T12:55:42.376Z,1.20
2022-09-13T12:58:43.925Z,0.82
2022-09-13T13:01:50.407Z,0.85
2022-09-13T13:08:00.065Z,0.70
2022-09-13T13:11:05.734Z,1.02
2022-09-13T13:14:46.047Z,0.97
2022-09-13T13:17:50.286Z,1.17
2022-09-13T13:20:55.164Z,0.80
2022-09-13T13:24:24.251Z,1.00
2022-09-13T13:27:38.142Z,0.82
2022-09-13T13:30:43.343Z,0.70
2022-09-13T13:33:52.733Z,0.90
2022-09-13T13:37:14.911Z,1.20
2022-09-13T13:40:26.166Z,0.75
2022-09-13T13:43:27.970Z,0.90
2022-09-13T13:46:32.335Z,1.20
2022-09-13T13:49:38.895Z,0.77
2022-09-13T13:52:46.983Z,1.10
2022-09-13T13:55:50.033Z,1.00
2022-09-13T13:59:09.457Z,1.00
2022-09-13T14:02:13.394Z,1.02
2022-09-13T14:05:40.189Z,0.90
2022-09-13T14:08:54.007Z,1.13
2022-09-13T14:11:58.962Z,0.90
2022-09-13T14:15:25.787Z,0.95
2022-09-13T14:18:41.167Z,1.30
2022-09-13T14:21:43.085Z,1.00
2022-09-13T14:24:49.153Z,0.80
2022-09-13T14:27:57.042Z,1.15
2022-09-13T14:30:59.717Z,1.00
2022-09-13T14:34:02.338Z,0.90
2022-09-13T14:37:07.228Z,1.30
2022-09-13T14:40:09.694Z,1.10
2022-09-13T14:43:20.130Z,1.00
2022-09-13T14:46:24.957Z,1.42
2022-09-13T14:49:31.717Z,1.30
2022-09-13T14:56:00.359Z,1.13
2022-09-13T14:59:05.458Z,0.90
2022-09-13T15:02:21.091Z,1.20
2022-09-13T15:05:25.809Z,1.17
2022-09-13T15:08:33.854Z,1.05
2022-09-13T15:11:38.219Z,1.00
2022-09-13T15:14:40.110Z,1.00
2022-09-13T15:18:03.745Z,0.70
2022-09-13T15:21:06.612Z,0.95
2022-09-13T15:24:45.719Z,0.73
2022-09-13T15:27:48.980Z,1.08
2022-09-13T15:30:51.805Z,1.00
2022-09-13T15:34:18.205Z,1.17
2022-09-13T15:37:36.952Z,1.13
2022-09-13T15:40:43.990Z,1.25
2022-09-13T15:43:48.630Z,1.02
2022-09-13T15:46:52.904Z,1.63
2022-09-13T15:49:54.962Z,1.00
2022-09-13T15:52:57.947Z,0.90
2022-09-13T15:56:01.705Z,1.05
2022-09-13T15:59:03.679Z,0.88
2022-09-13T16:02:32.216Z,0.82
2022-09-13T16:05:34.208Z,1.42
2022-09-13T16:08:37.397Z,1.10
2022-09-13T16:11:39.335Z,1.33
2022-09-13T16:14:41.874Z,1.25
2022-09-13T16:17:43.939Z,1.42
2022-09-13T16:20:46.259Z,1.02
2022-09-13T16:23:48.597Z,1.48
2022-09-13T16:26:50.835Z,1.08
2022-09-13T16:29:53.731Z,1.00
2022-09-13T16:32:55.670Z,1.60
2022-09-13T16:36:02.129Z,0.88
2022-09-13T16:39:04.923Z,0.77
2022-09-13T16:42:07.188Z,1.40
2022-09-13T16:45:10.740Z,0.82
2022-09-13T16:48:14.123Z,0.98
2022-09-13T16:51:16.769Z,1.10
2022-09-13T16:54:18.658Z,1.20
2022-09-13T16:57:20.804Z,1.17
2022-09-13T17:00:25.175Z,0.95
2022-09-13T17:03:27.642Z,1.10
2022-09-13T17:06:32.482Z,0.90
2022-09-13T17:09:34.944Z,0.80
2022-09-13T17:12:37.305Z,0.93
2022-09-13T17:15:40.289Z,1.02
2022-09-13T17:18:42.756Z,1.00
2022-09-13T17:21:45.604Z,1.48
2022-09-13T17:24:48.626Z,1.38
2022-09-13T17:27:50.621Z,1.15
2022-09-13T17:30:53.400Z,1.00
2022-09-13T17:33:55.969Z,1.42
2022-09-13T17:36:58.362Z,1.20
2022-09-13T17:40:00.440Z,1.00
2022-09-13T17:43:02.936Z,1.30
2022-09-13T17:46:10.668Z,1.05
2022-09-13T17:49:13.119Z,0.98
2022-09-13T17:52:15.264Z,1.20
2022-09-13T17:55:18.353Z,0.98
2022-09-13T17:58:20.836Z,1.10
2022-09-13T18:01:23.639Z,0.85
2022-09-13T18:04:25.997Z,1.17
2022-09-13T18:07:28.288Z,1.20
2022-09-13T18:10:53.602Z,1.48
2022-09-13T18:13:53.956Z,1.35
2022-09-13T18:16:59.025Z,1.30
2022-09-13T18:20:07.576Z,1.20
2022-09-13T18:23:09.641Z,1.10
2022-09-13T18:26:13.964Z,1.08
2022-09-13T18:29:18.185Z,1.10
2022-09-13T18:32:20.237Z,1.40
2022-09-13T18:35:22.374Z,0.98
2022-09-13T18:38:24.697Z,1.42
2022-09-13T18:41:30.157Z,0.93
2022-09-13T18:44:34.205Z,1.13
2022-09-13T18:47:37.053Z,1.38
2022-09-13T18:50:42.420Z,1.00
2022-09-13T18:53:45.527Z,1.38
2022-09-13T18:56:48.334Z,1.20
2022-09-13T18:59:50.678Z,0.95
2022-09-13T19:03:11.256Z,1.00
2022-09-13T19:06:20.283Z,1.45
2022-09-13T19:09:23.753Z,1.35
2022-09-13T19:12:26.453Z,1.02
2022-09-13T19:15:28.827Z,0.95
2022-09-13T19:18:32.047Z,1.35
2022-09-13T19:21:34.503Z,0.98
2022-09-13T19:24:38.203Z,1.20
2022-09-13T19:27:40.264Z,1.13
2022-09-13T19:30:42.457Z,0.90
2022-09-13T19:33:45.330Z,1.40
2022-09-13T19:36:49.963Z,1.42
2022-09-13T19:39:52.363Z,1.20
2022-09-13T19:42:54.884Z,1.08
2022-09-13T19:46:05.991Z,0.90
2022-09-13T19:49:10.992Z,0.85
2022-09-13T19:52:15.963Z,1.25
2022-09-13T19:55:18.375Z,1.45
2022-09-13T19:58:21.200Z,1.58
2022-09-13T20:01:25.877Z,1.00
2022-09-13T20:04:30.355Z,1.48
2022-09-13T20:07:32.716Z,1.10
2022-09-13T20:10:38.158Z,1.40
2022-09-13T20:13:40.370Z,1.42
2022-09-13T20:16:46.069Z,1.17
2022-09-13T20:19:50.305Z,0.88
2022-09-13T20:22:52.854Z,1.30
2022-09-13T20:25:55.561Z,1.10
2022-09-13T20:29:03.744Z,1.08
2022-09-13T20:32:06.389Z,1.10
2022-09-13T20:35:09.937Z,1.25
2022-09-13T20:38:12.564Z,1.48
2022-09-13T20:41:16.800Z,1.30
2022-09-13T20:44:20.074Z,0.90
2022-09-13T20:47:24.876Z,1.20
2022-09-13T20:50:29.334Z,1.30
2022-09-13T20:53:33.607Z,1.50
2022-09-13T20:56:36.763Z,1.23
2022-09-13T20:59:39.097Z,1.42
2022-09-13T21:02:43.594Z,1.23
2022-09-13T21:05:45.882Z,1.40
2022-09-13T21:08:50.563Z,1.58
2022-09-13T21:11:52.667Z,1.23
2022-09-13T21:14:54.805Z,0.95
2022-09-13T21:17:58.133Z,1.30
2022-09-13T21:21:01.859Z,1.27
2022-09-13T21:24:06.419Z,1.45
2022-09-13T21:27:11.976Z,1.27
2022-09-13T21:30:16.925Z,1.70
2022-09-13T21:33:18.914Z,1.02
2022-09-13T21:36:23.804Z,1.40
2022-09-13T21:39:25.831Z,1.00
2022-09-13T21:42:28.417Z,1.33
2022-09-13T21:45:31.574Z,1.45
2022-09-13T21:48:35.408Z,1.48
2022-09-13T21:51:43.494Z,1.15
2022-09-13T21:54:45.607Z,1.45
2022-09-13T21:57:47.438Z,1.30
2022-09-13T22:00:50.698Z,1.58
2022-09-13T22:03:53.481Z,1.52
2022-09-13T22:06:55.975Z,1.30
2022-09-13T22:09:57.916Z,1.58
2022-09-13T22:12:59.881Z,1.20
2022-09-13T22:16:09.223Z,1.40
2022-09-13T22:19:26.322Z,1.23
2022-09-13T22:22:31.438Z,1.80
2022-09-13T22:25:34.712Z,1.45
2022-09-13T22:28:36.927Z,1.20
2022-09-13T22:31:40.800Z,1.83
2022-09-13T22:34:43.464Z,1.95
2022-09-13T22:37:46.348Z,1.30
2022-09-13T22:40:56.298Z,1.63
2022-09-13T22:43:59.802Z,1.85
2022-09-13T22:47:02.871Z,1.70
2022-09-13T22:50:10.109Z,1.50
2022-09-13T22:53:15.683Z,1.73
2022-09-13T22:56:29.869Z,1.65
2022-09-13T22:59:31.973Z,1.30
2022-09-13T23:02:34.085Z,1.80
2022-09-13T23:05:36.448Z,2.13
2022-09-13T23:08:39.854Z,2.05
2022-09-13T23:11:42.348Z,1.75
2022-09-13T23:14:44.619Z,2.10
2022-09-13T23:17:48.079Z,1.95
2022-09-13T23:20:56.137Z,2.17
2022-09-13T23:24:01.704Z,1.92
2022-09-13T23:27:03.787Z,1.88
2022-09-13T23:30:05.980Z,2.15
2022-09-13T23:33:12.124Z,2.00
2022-09-13T23:36:16.480Z,1.63
2022-09-13T23:39:20.249Z,1.90
2022-09-13T23:42:22.229Z,2.08
2022-09-13T23:45:25.374Z,1.90
2022-09-13T23:48:27.216Z,1.77
2022-09-13T23:51:29.270Z,1.98
2022-09-13T23:54:31.211Z,1.35
2022-09-13T23:57:33.319Z,1.90
